<?xml version="1.0" encoding="UTF-8" standalone="no" ?>
<gpx xmlns="http://www.topografix.com/GPX/1/1" xmlns:xsi="http://www.w3.org/2001/XMLSchema-instance" xsi:schemaLocation="http://www.topografix.com/GPX/1/1 http://www.topografix.com/GPX/1/1/gpx.xsd" version="1.1" creator="VisuGPX - https://www.visugpx.com">
  <metadata>
    <name>Peyre sous le viaduc </name>
    <desc><![CDATA[D 'une église troglodyte à la majesté du viaduc.]]></desc>
  </metadata>
  <trk>
    <name><![CDATA[OR-6760426--Saint-Georges-de-Luzençon:PEYRE  VIADUC 20]]></name>
    <trkseg>
      <trkpt lat="44.08803" lon="2.9962">
        <ele>343</ele>
        <time>2017-02-22T18:47:44Z</time>
      </trkpt>
      <trkpt lat="44.08818" lon="2.99637">
        <ele>343</ele>
        <time>2017-02-22T18:49:44Z</time>
      </trkpt>
      <trkpt lat="44.08868" lon="2.9967">
        <ele>349</ele>
        <time>2017-02-22T18:51:44Z</time>
      </trkpt>
      <trkpt lat="44.08956" lon="2.99751">
        <ele>350</ele>
        <time>2017-02-22T18:53:44Z</time>
      </trkpt>
      <trkpt lat="44.08995" lon="2.9977">
        <ele>356</ele>
        <time>2017-02-22T18:55:44Z</time>
      </trkpt>
      <trkpt lat="44.09017" lon="2.99781">
        <ele>359</ele>
        <time>2017-02-22T18:57:44Z</time>
      </trkpt>
      <trkpt lat="44.09083" lon="2.99815">
        <ele>371</ele>
        <time>2017-02-22T18:59:44Z</time>
      </trkpt>
      <trkpt lat="44.09082" lon="2.99783">
        <ele>377</ele>
        <time>2017-02-22T19:01:44Z</time>
      </trkpt>
      <trkpt lat="44.09042" lon="2.99749">
        <ele>373</ele>
        <time>2017-02-22T19:03:44Z</time>
      </trkpt>
      <trkpt lat="44.09023" lon="2.99721">
        <ele>376</ele>
        <time>2017-02-22T19:05:44Z</time>
      </trkpt>
      <trkpt lat="44.09026" lon="2.99685">
        <ele>387</ele>
        <time>2017-02-22T19:07:44Z</time>
      </trkpt>
      <trkpt lat="44.08939" lon="2.99637">
        <ele>372</ele>
        <time>2017-02-22T19:09:44Z</time>
      </trkpt>
      <trkpt lat="44.08929" lon="2.99599">
        <ele>376</ele>
        <time>2017-02-22T19:11:44Z</time>
      </trkpt>
      <trkpt lat="44.08931" lon="2.99539">
        <ele>383</ele>
        <time>2017-02-22T19:13:44Z</time>
      </trkpt>
      <trkpt lat="44.08929" lon="2.99446">
        <ele>387</ele>
        <time>2017-02-22T19:15:44Z</time>
      </trkpt>
      <trkpt lat="44.0892" lon="2.99395">
        <ele>386</ele>
        <time>2017-02-22T19:17:44Z</time>
      </trkpt>
      <trkpt lat="44.08949" lon="2.99348">
        <ele>395</ele>
        <time>2017-02-22T19:19:44Z</time>
      </trkpt>
      <trkpt lat="44.08983" lon="2.99307">
        <ele>409</ele>
        <time>2017-02-22T19:21:44Z</time>
      </trkpt>
      <trkpt lat="44.08965" lon="2.99249">
        <ele>412</ele>
        <time>2017-02-22T19:23:44Z</time>
      </trkpt>
      <trkpt lat="44.08929" lon="2.99215">
        <ele>411</ele>
        <time>2017-02-22T19:25:44Z</time>
      </trkpt>
      <trkpt lat="44.089" lon="2.99152">
        <ele>418</ele>
        <time>2017-02-22T19:27:44Z</time>
      </trkpt>
      <trkpt lat="44.08877" lon="2.99097">
        <ele>423</ele>
        <time>2017-02-22T19:29:44Z</time>
      </trkpt>
      <trkpt lat="44.08868" lon="2.99028">
        <ele>430</ele>
        <time>2017-02-22T19:31:44Z</time>
      </trkpt>
      <trkpt lat="44.08843" lon="2.98989">
        <ele>429</ele>
        <time>2017-02-22T19:33:44Z</time>
      </trkpt>
      <trkpt lat="44.08832" lon="2.98938">
        <ele>432</ele>
        <time>2017-02-22T19:35:44Z</time>
      </trkpt>
      <trkpt lat="44.08851" lon="2.98865">
        <ele>433</ele>
        <time>2017-02-22T19:37:44Z</time>
      </trkpt>
      <trkpt lat="44.08897" lon="2.98863">
        <ele>437</ele>
        <time>2017-02-22T19:39:44Z</time>
      </trkpt>
      <trkpt lat="44.08957" lon="2.98871">
        <ele>446</ele>
        <time>2017-02-22T19:41:44Z</time>
      </trkpt>
      <trkpt lat="44.09034" lon="2.98854">
        <ele>455</ele>
        <time>2017-02-22T19:43:44Z</time>
      </trkpt>
      <trkpt lat="44.09128" lon="2.98837">
        <ele>467</ele>
        <time>2017-02-22T19:45:44Z</time>
      </trkpt>
      <trkpt lat="44.09182" lon="2.98816">
        <ele>466</ele>
        <time>2017-02-22T19:47:44Z</time>
      </trkpt>
      <trkpt lat="44.09242" lon="2.9879">
        <ele>464</ele>
        <time>2017-02-22T19:49:44Z</time>
      </trkpt>
      <trkpt lat="44.09316" lon="2.98764">
        <ele>473</ele>
        <time>2017-02-22T19:51:44Z</time>
      </trkpt>
      <trkpt lat="44.09401" lon="2.98732">
        <ele>479</ele>
        <time>2017-02-22T19:53:44Z</time>
      </trkpt>
      <trkpt lat="44.0949" lon="2.98734">
        <ele>490</ele>
        <time>2017-02-22T19:55:44Z</time>
      </trkpt>
      <trkpt lat="44.09552" lon="2.98693">
        <ele>495</ele>
        <time>2017-02-22T19:57:44Z</time>
      </trkpt>
      <trkpt lat="44.09533" lon="2.9856">
        <ele>474</ele>
        <time>2017-02-22T19:59:44Z</time>
      </trkpt>
      <trkpt lat="44.09592" lon="2.98515">
        <ele>486</ele>
        <time>2017-02-22T20:01:44Z</time>
      </trkpt>
      <trkpt lat="44.09652" lon="2.98472">
        <ele>492</ele>
        <time>2017-02-22T20:03:44Z</time>
      </trkpt>
      <trkpt lat="44.09729" lon="2.98431">
        <ele>492</ele>
        <time>2017-02-22T20:05:44Z</time>
      </trkpt>
      <trkpt lat="44.09825" lon="2.98391">
        <ele>495</ele>
        <time>2017-02-22T20:07:44Z</time>
      </trkpt>
      <trkpt lat="44.09883" lon="2.98376">
        <ele>505</ele>
        <time>2017-02-22T20:09:44Z</time>
      </trkpt>
      <trkpt lat="44.09803" lon="2.98262">
        <ele>491</ele>
        <time>2017-02-22T20:11:44Z</time>
      </trkpt>
      <trkpt lat="44.09859" lon="2.98213">
        <ele>504</ele>
        <time>2017-02-22T20:13:44Z</time>
      </trkpt>
      <trkpt lat="44.09923" lon="2.98116">
        <ele>505</ele>
        <time>2017-02-22T20:15:44Z</time>
      </trkpt>
      <trkpt lat="44.1002" lon="2.98026">
        <ele>517</ele>
        <time>2017-02-22T20:17:44Z</time>
      </trkpt>
      <trkpt lat="44.1011" lon="2.98007">
        <ele>528</ele>
        <time>2017-02-22T20:19:44Z</time>
      </trkpt>
      <trkpt lat="44.10213" lon="2.98002">
        <ele>544</ele>
        <time>2017-02-22T20:21:44Z</time>
      </trkpt>
      <trkpt lat="44.10301" lon="2.97968">
        <ele>560</ele>
        <time>2017-02-22T20:23:44Z</time>
      </trkpt>
      <trkpt lat="44.10393" lon="2.97921">
        <ele>567</ele>
        <time>2017-02-22T20:25:44Z</time>
      </trkpt>
      <trkpt lat="44.10527" lon="2.97869">
        <ele>583</ele>
        <time>2017-02-22T20:27:44Z</time>
      </trkpt>
      <trkpt lat="44.10592" lon="2.97805">
        <ele>591</ele>
        <time>2017-02-22T20:29:44Z</time>
      </trkpt>
      <trkpt lat="44.1064" lon="2.97805">
        <ele>592</ele>
        <time>2017-02-22T20:31:44Z</time>
      </trkpt>
      <trkpt lat="44.10694" lon="2.9779">
        <ele>596</ele>
        <time>2017-02-22T20:33:44Z</time>
      </trkpt>
      <trkpt lat="44.10714" lon="2.97844">
        <ele>597</ele>
        <time>2017-02-22T20:35:44Z</time>
      </trkpt>
      <trkpt lat="44.10657" lon="2.97904">
        <ele>600</ele>
        <time>2017-02-22T20:37:44Z</time>
      </trkpt>
      <trkpt lat="44.10601" lon="2.9797">
        <ele>605</ele>
        <time>2017-02-22T20:39:44Z</time>
      </trkpt>
      <trkpt lat="44.10554" lon="2.98028">
        <ele>610</ele>
        <time>2017-02-22T20:41:44Z</time>
      </trkpt>
      <trkpt lat="44.10481" lon="2.9809">
        <ele>611</ele>
        <time>2017-02-22T20:43:44Z</time>
      </trkpt>
      <trkpt lat="44.1044" lon="2.98191">
        <ele>619</ele>
        <time>2017-02-22T20:45:44Z</time>
      </trkpt>
      <trkpt lat="44.10378" lon="2.98251">
        <ele>616</ele>
        <time>2017-02-22T20:47:44Z</time>
      </trkpt>
      <trkpt lat="44.10375" lon="2.98361">
        <ele>608</ele>
        <time>2017-02-22T20:49:44Z</time>
      </trkpt>
      <trkpt lat="44.10432" lon="2.98408">
        <ele>604</ele>
        <time>2017-02-22T20:51:44Z</time>
      </trkpt>
      <trkpt lat="44.10481" lon="2.98485">
        <ele>602</ele>
        <time>2017-02-22T20:53:44Z</time>
      </trkpt>
      <trkpt lat="44.10453" lon="2.98545">
        <ele>600</ele>
        <time>2017-02-22T20:55:44Z</time>
      </trkpt>
      <trkpt lat="44.10406" lon="2.98605">
        <ele>596</ele>
        <time>2017-02-22T20:57:44Z</time>
      </trkpt>
      <trkpt lat="44.10378" lon="2.98657">
        <ele>599</ele>
        <time>2017-02-22T20:59:44Z</time>
      </trkpt>
      <trkpt lat="44.10376" lon="2.9874">
        <ele>598</ele>
        <time>2017-02-22T21:01:44Z</time>
      </trkpt>
      <trkpt lat="44.10429" lon="2.98816">
        <ele>583</ele>
        <time>2017-02-22T21:03:44Z</time>
      </trkpt>
      <trkpt lat="44.10501" lon="2.98901">
        <ele>571</ele>
        <time>2017-02-22T21:05:44Z</time>
      </trkpt>
      <trkpt lat="44.10618" lon="2.9894">
        <ele>562</ele>
        <time>2017-02-22T21:07:44Z</time>
      </trkpt>
      <trkpt lat="44.10701" lon="2.98959">
        <ele>555</ele>
        <time>2017-02-22T21:09:44Z</time>
      </trkpt>
      <trkpt lat="44.10792" lon="2.98987">
        <ele>549</ele>
        <time>2017-02-22T21:11:44Z</time>
      </trkpt>
      <trkpt lat="44.10865" lon="2.99026">
        <ele>536</ele>
        <time>2017-02-22T21:13:44Z</time>
      </trkpt>
      <trkpt lat="44.10942" lon="2.99011">
        <ele>529</ele>
        <time>2017-02-22T21:15:44Z</time>
      </trkpt>
      <trkpt lat="44.10916" lon="2.99075">
        <ele>521</ele>
        <time>2017-02-22T21:17:44Z</time>
      </trkpt>
      <trkpt lat="44.10906" lon="2.99107">
        <ele>514</ele>
        <time>2017-02-22T21:19:44Z</time>
      </trkpt>
      <trkpt lat="44.10962" lon="2.99067">
        <ele>518</ele>
        <time>2017-02-22T21:21:44Z</time>
      </trkpt>
      <trkpt lat="44.11016" lon="2.99043">
        <ele>521</ele>
        <time>2017-02-22T21:23:44Z</time>
      </trkpt>
      <trkpt lat="44.11037" lon="2.99099">
        <ele>516</ele>
        <time>2017-02-22T21:25:44Z</time>
      </trkpt>
      <trkpt lat="44.11007" lon="2.99191">
        <ele>496</ele>
        <time>2017-02-22T21:27:44Z</time>
      </trkpt>
      <trkpt lat="44.11017" lon="2.99307">
        <ele>482</ele>
        <time>2017-02-22T21:29:44Z</time>
      </trkpt>
      <trkpt lat="44.11034" lon="2.99414">
        <ele>479</ele>
        <time>2017-02-22T21:31:44Z</time>
      </trkpt>
      <trkpt lat="44.1115" lon="2.99588">
        <ele>486</ele>
        <time>2017-02-22T21:33:44Z</time>
      </trkpt>
      <trkpt lat="44.11205" lon="2.99768">
        <ele>498</ele>
        <time>2017-02-22T21:35:44Z</time>
      </trkpt>
      <trkpt lat="44.11307" lon="3.00017">
        <ele>504</ele>
        <time>2017-02-22T21:37:44Z</time>
      </trkpt>
      <trkpt lat="44.11433" lon="3.00215">
        <ele>509</ele>
        <time>2017-02-22T21:39:44Z</time>
      </trkpt>
      <trkpt lat="44.11572" lon="3.00545">
        <ele>527</ele>
        <time>2017-02-22T21:41:44Z</time>
      </trkpt>
      <trkpt lat="44.11661" lon="3.00717">
        <ele>531</ele>
        <time>2017-02-22T21:43:44Z</time>
      </trkpt>
      <trkpt lat="44.11785" lon="3.00906">
        <ele>540</ele>
        <time>2017-02-22T21:45:44Z</time>
      </trkpt>
      <trkpt lat="44.11877" lon="3.01099">
        <ele>551</ele>
        <time>2017-02-22T21:47:44Z</time>
      </trkpt>
      <trkpt lat="44.11994" lon="3.01339">
        <ele>556</ele>
        <time>2017-02-22T21:49:44Z</time>
      </trkpt>
      <trkpt lat="44.12163" lon="3.01532">
        <ele>569</ele>
        <time>2017-02-22T21:51:44Z</time>
      </trkpt>
      <trkpt lat="44.1224" lon="3.01798">
        <ele>590</ele>
        <time>2017-02-22T21:53:44Z</time>
      </trkpt>
      <trkpt lat="44.1221" lon="3.02008">
        <ele>612</ele>
        <time>2017-02-22T21:55:44Z</time>
      </trkpt>
      <trkpt lat="44.12207" lon="3.02184">
        <ele>627</ele>
        <time>2017-02-22T21:57:44Z</time>
      </trkpt>
      <trkpt lat="44.12157" lon="3.02386">
        <ele>649</ele>
        <time>2017-02-22T21:59:44Z</time>
      </trkpt>
      <trkpt lat="44.12096" lon="3.02592">
        <ele>673</ele>
        <time>2017-02-22T22:01:44Z</time>
      </trkpt>
      <trkpt lat="44.12006" lon="3.02759">
        <ele>678</ele>
        <time>2017-02-22T22:03:44Z</time>
      </trkpt>
      <trkpt lat="44.11911" lon="3.02862">
        <ele>669</ele>
        <time>2017-02-22T22:05:44Z</time>
      </trkpt>
      <trkpt lat="44.11791" lon="3.02841">
        <ele>664</ele>
        <time>2017-02-22T22:07:44Z</time>
      </trkpt>
      <trkpt lat="44.11858" lon="3.0288">
        <ele>665</ele>
        <time>2017-02-22T22:09:44Z</time>
      </trkpt>
      <trkpt lat="44.11828" lon="3.03021">
        <ele>655</ele>
        <time>2017-02-22T22:11:44Z</time>
      </trkpt>
      <trkpt lat="44.11738" lon="3.0306">
        <ele>655</ele>
        <time>2017-02-22T22:13:44Z</time>
      </trkpt>
      <trkpt lat="44.11609" lon="3.03249">
        <ele>649</ele>
        <time>2017-02-22T22:15:44Z</time>
      </trkpt>
      <trkpt lat="44.11504" lon="3.03472">
        <ele>635</ele>
        <time>2017-02-22T22:17:44Z</time>
      </trkpt>
      <trkpt lat="44.1139" lon="3.03622">
        <ele>612</ele>
        <time>2017-02-22T22:19:44Z</time>
      </trkpt>
      <trkpt lat="44.11329" lon="3.03802">
        <ele>598</ele>
        <time>2017-02-22T22:21:44Z</time>
      </trkpt>
      <trkpt lat="44.11338" lon="3.03935">
        <ele>594</ele>
        <time>2017-02-22T22:23:44Z</time>
      </trkpt>
      <trkpt lat="44.11279" lon="3.0406">
        <ele>584</ele>
        <time>2017-02-22T22:25:44Z</time>
      </trkpt>
      <trkpt lat="44.11199" lon="3.04244">
        <ele>577</ele>
        <time>2017-02-22T22:27:44Z</time>
      </trkpt>
      <trkpt lat="44.11162" lon="3.04163">
        <ele>573</ele>
        <time>2017-02-22T22:29:44Z</time>
      </trkpt>
      <trkpt lat="44.11131" lon="3.04064">
        <ele>570</ele>
        <time>2017-02-22T22:31:44Z</time>
      </trkpt>
      <trkpt lat="44.11131" lon="3.03927">
        <ele>577</ele>
        <time>2017-02-22T22:33:44Z</time>
      </trkpt>
      <trkpt lat="44.1103" lon="3.0394">
        <ele>578</ele>
        <time>2017-02-22T22:35:44Z</time>
      </trkpt>
      <trkpt lat="44.10962" lon="3.03729">
        <ele>582</ele>
        <time>2017-02-22T22:37:44Z</time>
      </trkpt>
      <trkpt lat="44.10863" lon="3.03678">
        <ele>586</ele>
        <time>2017-02-22T22:39:44Z</time>
      </trkpt>
      <trkpt lat="44.10777" lon="3.03622">
        <ele>585</ele>
        <time>2017-02-22T22:41:44Z</time>
      </trkpt>
      <trkpt lat="44.10774" lon="3.03541">
        <ele>589</ele>
        <time>2017-02-22T22:43:44Z</time>
      </trkpt>
      <trkpt lat="44.10654" lon="3.03506">
        <ele>591</ele>
        <time>2017-02-22T22:45:44Z</time>
      </trkpt>
      <trkpt lat="44.1066" lon="3.0339">
        <ele>598</ele>
        <time>2017-02-22T22:47:44Z</time>
      </trkpt>
      <trkpt lat="44.10666" lon="3.03274">
        <ele>601</ele>
        <time>2017-02-22T22:49:44Z</time>
      </trkpt>
      <trkpt lat="44.10552" lon="3.03214">
        <ele>594</ele>
        <time>2017-02-22T22:51:44Z</time>
      </trkpt>
      <trkpt lat="44.10567" lon="3.03103">
        <ele>598</ele>
        <time>2017-02-22T22:53:44Z</time>
      </trkpt>
      <trkpt lat="44.10423" lon="3.03021">
        <ele>589</ele>
        <time>2017-02-22T22:55:44Z</time>
      </trkpt>
      <trkpt lat="44.10275" lon="3.0294">
        <ele>576</ele>
        <time>2017-02-22T22:57:44Z</time>
      </trkpt>
      <trkpt lat="44.10195" lon="3.02875">
        <ele>570</ele>
        <time>2017-02-22T22:59:44Z</time>
      </trkpt>
      <trkpt lat="44.10053" lon="3.02802">
        <ele>570</ele>
        <time>2017-02-22T23:01:44Z</time>
      </trkpt>
      <trkpt lat="44.09926" lon="3.02764">
        <ele>570</ele>
        <time>2017-02-22T23:03:44Z</time>
      </trkpt>
      <trkpt lat="44.09742" lon="3.02717">
        <ele>552</ele>
        <time>2017-02-22T23:05:44Z</time>
      </trkpt>
      <trkpt lat="44.09658" lon="3.02777">
        <ele>536</ele>
        <time>2017-02-22T23:07:44Z</time>
      </trkpt>
      <trkpt lat="44.09578" lon="3.02871">
        <ele>523</ele>
        <time>2017-02-22T23:09:44Z</time>
      </trkpt>
      <trkpt lat="44.09507" lon="3.02923">
        <ele>515</ele>
        <time>2017-02-22T23:11:44Z</time>
      </trkpt>
      <trkpt lat="44.09446" lon="3.02841">
        <ele>515</ele>
        <time>2017-02-22T23:13:44Z</time>
      </trkpt>
      <trkpt lat="44.0935" lon="3.02781">
        <ele>501</ele>
        <time>2017-02-22T23:15:44Z</time>
      </trkpt>
      <trkpt lat="44.09344" lon="3.02717">
        <ele>511</ele>
        <time>2017-02-22T23:17:44Z</time>
      </trkpt>
      <trkpt lat="44.09366" lon="3.02622">
        <ele>525</ele>
        <time>2017-02-22T23:19:44Z</time>
      </trkpt>
      <trkpt lat="44.09307" lon="3.02592">
        <ele>518</ele>
        <time>2017-02-22T23:21:44Z</time>
      </trkpt>
      <trkpt lat="44.09292" lon="3.02515">
        <ele>530</ele>
        <time>2017-02-22T23:23:44Z</time>
      </trkpt>
      <trkpt lat="44.09227" lon="3.02511">
        <ele>517</ele>
        <time>2017-02-22T23:25:44Z</time>
      </trkpt>
      <trkpt lat="44.09147" lon="3.02455">
        <ele>508</ele>
        <time>2017-02-22T23:27:44Z</time>
      </trkpt>
      <trkpt lat="44.09033" lon="3.02373">
        <ele>505</ele>
        <time>2017-02-22T23:29:44Z</time>
      </trkpt>
      <trkpt lat="44.08993" lon="3.02317">
        <ele>507</ele>
        <time>2017-02-22T23:31:44Z</time>
      </trkpt>
      <trkpt lat="44.08943" lon="3.02197">
        <ele>510</ele>
        <time>2017-02-22T23:33:44Z</time>
      </trkpt>
      <trkpt lat="44.08872" lon="3.02111">
        <ele>494</ele>
        <time>2017-02-22T23:35:44Z</time>
      </trkpt>
      <trkpt lat="44.08888" lon="3.01991">
        <ele>507</ele>
        <time>2017-02-22T23:37:44Z</time>
      </trkpt>
      <trkpt lat="44.08949" lon="3.01927">
        <ele>510</ele>
        <time>2017-02-22T23:39:44Z</time>
      </trkpt>
      <trkpt lat="44.0903" lon="3.0194">
        <ele>531</ele>
        <time>2017-02-22T23:41:44Z</time>
      </trkpt>
      <trkpt lat="44.09116" lon="3.01923">
        <ele>544</ele>
        <time>2017-02-22T23:43:44Z</time>
      </trkpt>
      <trkpt lat="44.09199" lon="3.01824">
        <ele>549</ele>
        <time>2017-02-22T23:45:44Z</time>
      </trkpt>
      <trkpt lat="44.091" lon="3.0173">
        <ele>519</ele>
        <time>2017-02-22T23:47:44Z</time>
      </trkpt>
      <trkpt lat="44.08983" lon="3.01682">
        <ele>489</ele>
        <time>2017-02-22T23:49:44Z</time>
      </trkpt>
      <trkpt lat="44.09017" lon="3.01446">
        <ele>516</ele>
        <time>2017-02-22T23:51:44Z</time>
      </trkpt>
      <trkpt lat="44.09082" lon="3.01455">
        <ele>529</ele>
        <time>2017-02-22T23:53:44Z</time>
      </trkpt>
      <trkpt lat="44.09187" lon="3.01442">
        <ele>540</ele>
        <time>2017-02-22T23:55:44Z</time>
      </trkpt>
      <trkpt lat="44.09298" lon="3.01373">
        <ele>555</ele>
        <time>2017-02-22T23:57:44Z</time>
      </trkpt>
      <trkpt lat="44.09335" lon="3.01313">
        <ele>561</ele>
        <time>2017-02-22T23:59:44Z</time>
      </trkpt>
      <trkpt lat="44.09288" lon="3.01223">
        <ele>555</ele>
        <time>2017-02-23T00:01:44Z</time>
      </trkpt>
      <trkpt lat="44.09359" lon="3.01137">
        <ele>553</ele>
        <time>2017-02-23T00:03:44Z</time>
      </trkpt>
      <trkpt lat="44.09492" lon="3.01129">
        <ele>554</ele>
        <time>2017-02-23T00:05:44Z</time>
      </trkpt>
      <trkpt lat="44.09591" lon="3.01309">
        <ele>551</ele>
        <time>2017-02-23T00:07:44Z</time>
      </trkpt>
      <trkpt lat="44.09591" lon="3.01545">
        <ele>540</ele>
        <time>2017-02-23T00:09:44Z</time>
      </trkpt>
      <trkpt lat="44.09655" lon="3.01712">
        <ele>551</ele>
        <time>2017-02-23T00:11:44Z</time>
      </trkpt>
      <trkpt lat="44.09723" lon="3.01777">
        <ele>562</ele>
        <time>2017-02-23T00:13:44Z</time>
      </trkpt>
      <trkpt lat="44.09748" lon="3.01524">
        <ele>517</ele>
        <time>2017-02-23T00:15:44Z</time>
      </trkpt>
      <trkpt lat="44.09815" lon="3.01455">
        <ele>509</ele>
        <time>2017-02-23T00:17:44Z</time>
      </trkpt>
      <trkpt lat="44.09911" lon="3.01352">
        <ele>481</ele>
        <time>2017-02-23T00:19:44Z</time>
      </trkpt>
      <trkpt lat="44.09933" lon="3.01253">
        <ele>460</ele>
        <time>2017-02-23T00:21:44Z</time>
      </trkpt>
      <trkpt lat="44.09985" lon="3.0118">
        <ele>452</ele>
        <time>2017-02-23T00:23:44Z</time>
      </trkpt>
      <trkpt lat="44.09868" lon="3.0112">
        <ele>438</ele>
        <time>2017-02-23T00:25:44Z</time>
      </trkpt>
      <trkpt lat="44.09794" lon="3.0103">
        <ele>433</ele>
        <time>2017-02-23T00:27:44Z</time>
      </trkpt>
      <trkpt lat="44.09735" lon="3.0094">
        <ele>425</ele>
        <time>2017-02-23T00:29:44Z</time>
      </trkpt>
      <trkpt lat="44.09677" lon="3.00841">
        <ele>417</ele>
        <time>2017-02-23T00:31:44Z</time>
      </trkpt>
      <trkpt lat="44.09634" lon="3.00747">
        <ele>412</ele>
        <time>2017-02-23T00:33:44Z</time>
      </trkpt>
      <trkpt lat="44.09581" lon="3.00648">
        <ele>395</ele>
        <time>2017-02-23T00:35:44Z</time>
      </trkpt>
      <trkpt lat="44.09501" lon="3.00549">
        <ele>388</ele>
        <time>2017-02-23T00:37:44Z</time>
      </trkpt>
      <trkpt lat="44.09415" lon="3.00524">
        <ele>382</ele>
        <time>2017-02-23T00:39:44Z</time>
      </trkpt>
      <trkpt lat="44.09332" lon="3.00494">
        <ele>376</ele>
        <time>2017-02-23T00:41:44Z</time>
      </trkpt>
      <trkpt lat="44.09251" lon="3.00459">
        <ele>377</ele>
        <time>2017-02-23T00:43:44Z</time>
      </trkpt>
      <trkpt lat="44.09193" lon="3.00408">
        <ele>367</ele>
        <time>2017-02-23T00:45:44Z</time>
      </trkpt>
      <trkpt lat="44.09168" lon="3.00335">
        <ele>361</ele>
        <time>2017-02-23T00:47:44Z</time>
      </trkpt>
      <trkpt lat="44.09214" lon="3.00236">
        <ele>377</ele>
        <time>2017-02-23T00:49:44Z</time>
      </trkpt>
      <trkpt lat="44.09295" lon="3.00112">
        <ele>397</ele>
        <time>2017-02-23T00:51:44Z</time>
      </trkpt>
      <trkpt lat="44.09329" lon="3.00043">
        <ele>407</ele>
        <time>2017-02-23T00:53:44Z</time>
      </trkpt>
      <trkpt lat="44.09264" lon="2.99931">
        <ele>400</ele>
        <time>2017-02-23T00:55:44Z</time>
      </trkpt>
      <trkpt lat="44.09199" lon="2.99923">
        <ele>384</ele>
        <time>2017-02-23T00:57:44Z</time>
      </trkpt>
      <trkpt lat="44.09182" lon="2.99923">
        <ele>379</ele>
        <time>2017-02-23T00:59:44Z</time>
      </trkpt>
      <trkpt lat="44.09164" lon="2.99916">
        <ele>375</ele>
        <time>2017-02-23T01:01:44Z</time>
      </trkpt>
      <trkpt lat="44.09147" lon="2.99869">
        <ele>381</ele>
        <time>2017-02-23T01:03:44Z</time>
      </trkpt>
      <trkpt lat="44.09178" lon="2.99961">
        <ele>371</ele>
        <time>2017-02-23T01:05:44Z</time>
      </trkpt>
      <trkpt lat="44.0917" lon="2.99954">
        <ele>371</ele>
        <time>2017-02-23T01:07:44Z</time>
      </trkpt>
      <trkpt lat="44.09151" lon="2.99915">
        <ele>371</ele>
        <time>2017-02-23T01:09:44Z</time>
      </trkpt>
      <trkpt lat="44.09146" lon="2.99908">
        <ele>371</ele>
        <time>2017-02-23T01:11:44Z</time>
      </trkpt>
      <trkpt lat="44.09138" lon="2.99898">
        <ele>371</ele>
        <time>2017-02-23T01:13:44Z</time>
      </trkpt>
      <trkpt lat="44.09123" lon="2.99888">
        <ele>368</ele>
        <time>2017-02-23T01:15:44Z</time>
      </trkpt>
      <trkpt lat="44.09124" lon="2.99903">
        <ele>365</ele>
        <time>2017-02-23T01:17:44Z</time>
      </trkpt>
      <trkpt lat="44.09129" lon="2.99927">
        <ele>363</ele>
        <time>2017-02-23T01:19:44Z</time>
      </trkpt>
      <trkpt lat="44.09131" lon="2.99957">
        <ele>359</ele>
        <time>2017-02-23T01:21:44Z</time>
      </trkpt>
      <trkpt lat="44.0913" lon="2.99991">
        <ele>355</ele>
        <time>2017-02-23T01:23:44Z</time>
      </trkpt>
      <trkpt lat="44.09111" lon="2.9999">
        <ele>350</ele>
        <time>2017-02-23T01:25:44Z</time>
      </trkpt>
      <trkpt lat="44.09098" lon="2.99999">
        <ele>346</ele>
        <time>2017-02-23T01:27:44Z</time>
      </trkpt>
      <trkpt lat="44.09095" lon="2.99971">
        <ele>348</ele>
        <time>2017-02-23T01:29:44Z</time>
      </trkpt>
      <trkpt lat="44.09085" lon="2.99939">
        <ele>348</ele>
        <time>2017-02-23T01:31:44Z</time>
      </trkpt>
      <trkpt lat="44.09075" lon="2.99905">
        <ele>351</ele>
        <time>2017-02-23T01:33:44Z</time>
      </trkpt>
      <trkpt lat="44.09062" lon="2.99865">
        <ele>356</ele>
        <time>2017-02-23T01:35:44Z</time>
      </trkpt>
      <trkpt lat="44.09041" lon="2.99834">
        <ele>355</ele>
        <time>2017-02-23T01:37:44Z</time>
      </trkpt>
      <trkpt lat="44.09019" lon="2.99803">
        <ele>356</ele>
        <time>2017-02-23T01:39:44Z</time>
      </trkpt>
      <trkpt lat="44.09" lon="2.99789">
        <ele>353</ele>
        <time>2017-02-23T01:41:44Z</time>
      </trkpt>
      <trkpt lat="44.08988" lon="2.99779">
        <ele>353</ele>
        <time>2017-02-23T01:43:44Z</time>
      </trkpt>
      <trkpt lat="44.08979" lon="2.99772">
        <ele>353</ele>
        <time>2017-02-23T01:45:44Z</time>
      </trkpt>
      <trkpt lat="44.08971" lon="2.99768">
        <ele>352</ele>
        <time>2017-02-23T01:47:44Z</time>
      </trkpt>
      <trkpt lat="44.0883" lon="2.99648">
        <ele>343</ele>
        <time>2017-02-23T01:49:44Z</time>
      </trkpt>
    </trkseg>
  </trk>
</gpx>